createdAt,value
2018-03-27T00:00:20.961Z,8.23
2018-03-27T00:02:47.565Z,8.37
2018-03-27T00:05:16.040Z,7.90
2018-03-27T00:07:42.627Z,8.00
2018-03-27T00:10:09.262Z,7.90
2018-03-27T00:12:35.903Z,8.33
2018-03-27T00:15:02.501Z,7.53
2018-03-27T00:17:29.427Z,8.00
2018-03-27T00:19:56.017Z,7.67
2018-03-27T00:22:22.626Z,7.87
2018-03-27T00:24:49.246Z,7.30
2018-03-27T00:27:15.592Z,7.90
2018-03-27T00:29:48.161Z,8.30
2018-03-27T00:32:20.453Z,7.60
2018-03-27T00:34:53.183Z,7.63
2018-03-27T00:37:25.858Z,7.47
2018-03-27T00:39:58.282Z,8.10
2018-03-27T00:42:39.832Z,7.93
2018-03-27T00:45:06.480Z,8.57
2018-03-27T00:47:33.163Z,7.57
2018-03-27T00:49:59.892Z,8.17
2018-03-27T00:52:26.574Z,7.63
2018-03-27T00:54:53.389Z,7.83
2018-03-27T00:57:20.068Z,8.20
2018-03-27T00:59:46.686Z,8.00
2018-03-27T01:02:13.382Z,7.77
2018-03-27T01:04:40.063Z,8.23
2018-03-27T01:07:06.733Z,8.30
2018-03-27T01:09:33.578Z,8.50
2018-03-27T01:12:00.324Z,8.43
2018-03-27T01:14:26.928Z,8.63
2018-03-27T01:16:53.715Z,9.20
2018-03-27T01:19:20.611Z,7.97
2018-03-27T01:21:47.300Z,8.07
2018-03-27T01:24:14.038Z,8.63
2018-03-27T01:26:40.737Z,8.73
2018-03-27T01:29:07.422Z,7.57
2018-03-27T01:31:34.113Z,8.50
2018-03-27T01:34:00.760Z,9.13
2018-03-27T01:36:27.439Z,7.87
2018-03-27T01:38:54.025Z,8.40
2018-03-27T01:41:20.658Z,9.13
2018-03-27T01:43:47.285Z,9.70
2018-03-27T01:46:13.884Z,10.00
2018-03-27T01:48:40.507Z,10.27
2018-03-27T01:51:07.101Z,9.73
2018-03-27T01:53:33.742Z,9.80
2018-03-27T01:56:00.334Z,9.10
2018-03-27T01:58:26.973Z,9.53
2018-03-27T02:00:53.563Z,9.30
2018-03-27T02:03:20.185Z,9.67
2018-03-27T02:05:46.777Z,9.07
2018-03-27T02:08:13.415Z,9.40
2018-03-27T02:10:39.609Z,9.20
2018-03-27T02:13:12.014Z,9.20
2018-03-27T02:15:44.345Z,9.10
2018-03-27T02:18:16.601Z,9.80
2018-03-27T02:20:48.812Z,9.17
2018-03-27T02:23:27.254Z,8.90
2018-03-27T02:25:53.845Z,7.30
2018-03-27T02:28:20.469Z,7.40
2018-03-27T02:30:47.086Z,6.50
2018-03-27T02:33:13.660Z,6.83
2018-03-27T02:35:40.292Z,6.60
2018-03-27T02:38:06.885Z,7.20
2018-03-27T02:40:33.548Z,6.93
2018-03-27T02:43:00.149Z,7.10
2018-03-27T02:45:26.764Z,6.30
2018-03-27T02:47:53.343Z,6.17
2018-03-27T02:50:20.130Z,5.60
2018-03-27T02:52:46.694Z,5.90
2018-03-27T02:55:13.323Z,6.30
2018-03-27T02:57:39.905Z,5.23
2018-03-27T03:00:06.495Z,5.70
2018-03-27T03:02:33.108Z,6.20
2018-03-27T03:04:59.972Z,7.80
2018-03-27T03:07:26.568Z,7.90
2018-03-27T03:09:53.179Z,7.73
2018-03-27T03:12:19.800Z,7.73
2018-03-27T03:14:46.418Z,6.70
2018-03-27T03:17:13.218Z,7.37
2018-03-27T03:19:39.796Z,7.33
2018-03-27T03:22:06.416Z,5.97
2018-03-27T03:24:33.009Z,5.90
2018-03-27T03:26:59.623Z,6.53
2018-03-27T03:29:26.207Z,6.40
2018-03-27T03:31:52.872Z,7.50
2018-03-27T03:34:19.474Z,6.37
2018-03-27T03:36:46.071Z,6.63
2018-03-27T03:39:12.675Z,7.17
2018-03-27T03:41:39.312Z,7.30
2018-03-27T03:44:05.903Z,6.47
2018-03-27T03:46:32.498Z,7.50
2018-03-27T03:48:59.084Z,8.07
2018-03-27T03:51:25.668Z,8.37
2018-03-27T03:53:52.301Z,8.10
2018-03-27T03:56:18.924Z,9.87
2018-03-27T03:58:45.569Z,11.97
2018-03-27T04:01:12.159Z,12.83
2018-03-27T04:03:38.808Z,11.20
2018-03-27T04:06:05.400Z,14.43
2018-03-27T04:08:32.037Z,13.57
2018-03-27T04:10:58.654Z,14.50
2018-03-27T04:13:25.315Z,12.97
2018-03-27T04:15:51.944Z,12.50
2018-03-27T04:18:18.579Z,15.10
2018-03-27T04:20:45.172Z,15.80
2018-03-27T04:23:11.772Z,16.40
2018-03-27T04:25:38.374Z,14.90
2018-03-27T04:28:05.020Z,14.50
2018-03-27T04:30:31.664Z,14.70
2018-03-27T04:32:58.304Z,16.00
2018-03-27T04:35:24.912Z,16.03
2018-03-27T04:37:51.587Z,15.73
2018-03-27T04:40:18.205Z,15.37
2018-03-27T04:42:44.801Z,14.73
2018-03-27T04:45:11.428Z,13.70
2018-03-27T04:47:38.057Z,13.70
2018-03-27T04:50:04.677Z,13.83
2018-03-27T04:52:31.334Z,13.20
2018-03-27T04:54:57.918Z,10.73
2018-03-27T04:57:24.957Z,11.07
2018-03-27T04:59:51.580Z,8.10
2018-03-27T05:02:18.184Z,11.10
2018-03-27T05:04:44.819Z,10.07
2018-03-27T05:07:11.433Z,9.10
2018-03-27T05:09:38.079Z,9.80
2018-03-27T05:12:04.683Z,10.97
2018-03-27T05:14:31.292Z,11.50
2018-03-27T05:16:57.913Z,12.10
2018-03-27T05:19:24.653Z,12.50
2018-03-27T05:21:51.530Z,12.83
2018-03-27T05:24:18.133Z,13.30
2018-03-27T05:26:44.791Z,13.30
2018-03-27T05:29:11.407Z,12.73
2018-03-27T05:31:38.041Z,14.97
2018-03-27T05:34:04.661Z,14.33
2018-03-27T05:36:31.304Z,16.10
2018-03-27T05:38:57.886Z,14.63
2018-03-27T05:41:24.530Z,19.00
2018-03-27T05:43:51.209Z,19.60
2018-03-27T05:46:17.828Z,22.80
2018-03-27T05:48:44.464Z,22.80
2018-03-27T05:51:11.104Z,25.73
2018-03-27T05:53:37.688Z,27.40
2018-03-27T05:56:04.926Z,26.33
2018-03-27T05:58:31.536Z,27.30
2018-03-27T06:00:58.173Z,28.20
2018-03-27T06:03:25.064Z,27.93
2018-03-27T06:05:51.673Z,27.10
2018-03-27T06:08:18.332Z,28.73
2018-03-27T06:10:44.982Z,31.23
2018-03-27T06:13:11.585Z,30.80
2018-03-27T06:15:38.212Z,30.37
2018-03-27T06:18:04.844Z,31.57
2018-03-27T06:20:31.449Z,32.13
2018-03-27T06:22:58.104Z,29.43
2018-03-27T06:25:24.686Z,30.50
2018-03-27T06:27:51.317Z,21.80
2018-03-27T06:30:18.016Z,19.77
2018-03-27T06:32:44.622Z,19.80
2018-03-27T06:35:11.339Z,20.50
2018-03-27T06:37:38.083Z,20.33
2018-03-27T06:40:04.718Z,17.73
2018-03-27T06:42:31.393Z,17.47
2018-03-27T06:44:58.332Z,26.27
2018-03-27T06:47:24.928Z,28.10
2018-03-27T06:49:51.553Z,30.27
2018-03-27T06:52:18.153Z,30.00
2018-03-27T06:54:44.810Z,29.10
2018-03-27T06:57:11.419Z,27.90
2018-03-27T06:59:38.036Z,30.03
2018-03-27T07:02:04.734Z,30.40
2018-03-27T07:04:31.368Z,30.30
2018-03-27T07:06:58.077Z,30.10
2018-03-27T07:09:24.725Z,27.97
2018-03-27T07:11:51.349Z,27.77
2018-03-27T07:14:18.010Z,28.63
2018-03-27T07:16:45.926Z,27.10
2018-03-27T07:19:24.930Z,25.97
2018-03-27T07:21:59.255Z,27.20
2018-03-27T07:24:31.891Z,27.80
2018-03-27T07:27:03.260Z,22.77
2018-03-27T07:29:32.637Z,21.40
2018-03-27T07:32:00.648Z,21.00
2018-03-27T07:34:34.952Z,20.10
2018-03-27T07:37:07.938Z,21.00
2018-03-27T07:39:38.537Z,19.20
2018-03-27T07:42:15.708Z,19.23
2018-03-27T07:44:44.974Z,20.70
2018-03-27T07:47:17.134Z,20.23
2018-03-27T07:52:25.123Z,21.23
2018-03-27T07:55:01.170Z,21.50
2018-03-27T07:57:31.473Z,19.63
2018-03-27T08:00:11.807Z,22.50
2018-03-27T08:02:46.242Z,21.27
2018-03-27T08:05:16.876Z,21.83
2018-03-27T08:07:48.233Z,21.63
2018-03-27T08:10:20.016Z,21.60
2018-03-27T08:12:49.647Z,23.50
2018-03-27T08:15:22.049Z,22.33
2018-03-27T08:17:55.363Z,24.30
2018-03-27T08:20:30.816Z,30.80
2018-03-27T08:23:03.298Z,23.90
2018-03-27T08:25:39.090Z,18.87
2018-03-27T08:28:14.683Z,20.30
2018-03-27T08:30:44.624Z,20.30
2018-03-27T08:33:15.514Z,22.63
2018-03-27T08:35:49.502Z,20.37
2018-03-27T08:38:19.426Z,20.43
2018-03-27T08:40:52.578Z,19.27
2018-03-27T08:43:20.836Z,18.87
2018-03-27T08:45:51.761Z,19.70
2018-03-27T08:48:28.536Z,20.27
2018-03-27T08:51:05.334Z,20.93
2018-03-27T08:53:51.993Z,21.80
2018-03-27T08:56:23.783Z,21.13
2018-03-27T08:58:56.920Z,21.80
2018-03-27T09:01:25.025Z,23.57
2018-03-27T09:03:54.427Z,22.00
2018-03-27T09:06:22.571Z,23.13
2018-03-27T09:08:55.809Z,23.87
2018-03-27T09:11:24.589Z,22.27
2018-03-27T09:13:54.110Z,21.80
2018-03-27T09:16:25.557Z,21.63
2018-03-27T09:18:58.139Z,22.73
2018-03-27T09:21:28.220Z,21.50
2018-03-27T09:26:36.206Z,20.60
2018-03-27T09:29:05.758Z,19.70
2018-03-27T09:31:41.086Z,20.97
2018-03-27T09:36:41.651Z,20.70
2018-03-27T09:39:12.393Z,22.27
2018-03-27T09:41:42.723Z,23.60
2018-03-27T09:46:44.693Z,23.27
2018-03-27T09:49:13.455Z,21.60
2018-03-27T09:51:43.357Z,21.27
2018-03-27T10:33:29.947Z,13.53
2018-03-27T10:36:03.872Z,15.33
2018-03-27T10:38:30.539Z,14.20
2018-03-27T10:40:58.154Z,13.67
2018-03-27T10:43:29.325Z,14.20
2018-03-27T10:45:59.025Z,14.77
2018-03-27T10:48:29.021Z,16.30
2018-03-27T10:51:00.838Z,17.27
2018-03-27T10:53:36.203Z,17.77
2018-03-27T10:56:04.455Z,19.57
2018-03-27T10:58:31.964Z,18.13
2018-03-27T11:01:04.655Z,17.07
2018-03-27T11:03:32.162Z,17.97
2018-03-27T11:06:09.411Z,19.87
2018-03-27T11:08:39.272Z,17.87
2018-03-27T11:11:06.219Z,18.50
2018-03-27T11:13:37.011Z,18.07
2018-03-27T11:16:20.479Z,18.37
2018-03-27T11:19:00.149Z,18.40
2018-03-27T11:21:31.624Z,18.80
2018-03-27T11:24:05.741Z,19.37
2018-03-27T11:26:36.165Z,21.20
2018-03-27T11:29:07.779Z,22.60
2018-03-27T11:31:38.814Z,23.20
2018-03-27T11:34:11.296Z,21.73
2018-03-27T11:39:16.363Z,22.87
2018-03-27T11:41:49.292Z,23.20
2018-03-27T11:44:18.237Z,24.40
2018-03-27T11:46:46.901Z,23.50
2018-03-27T11:49:24.578Z,22.47
2018-03-27T11:51:54.436Z,25.00
2018-03-27T11:54:30.076Z,23.40
2018-03-27T11:57:01.413Z,25.53
2018-03-27T11:59:34.549Z,25.40
2018-03-27T12:02:03.344Z,25.40
2018-03-27T12:04:32.654Z,23.73
2018-03-27T12:07:02.891Z,24.63
2018-03-27T12:09:34.167Z,24.70
2018-03-27T12:12:03.682Z,24.30
2018-03-27T12:14:33.852Z,23.83
2018-03-27T12:17:17.382Z,24.30
2018-03-27T12:19:50.233Z,23.90
2018-03-27T12:22:19.556Z,23.13
2018-03-27T12:24:52.767Z,21.70
2018-03-27T12:27:28.643Z,18.97
2018-03-27T12:29:58.277Z,18.90
2018-03-27T12:32:30.898Z,22.90
2018-03-27T12:35:03.155Z,19.00
2018-03-27T12:37:36.718Z,18.83
2018-03-27T12:40:13.251Z,19.90
2018-03-27T12:42:59.029Z,19.13
2018-03-27T12:45:27.853Z,19.27
2018-03-27T12:48:00.588Z,18.83
2018-03-27T12:50:30.660Z,19.03
2018-03-27T12:53:00.411Z,20.07
2018-03-27T12:55:32.829Z,18.27
2018-03-27T12:58:02.865Z,20.30
2018-03-27T13:00:32.456Z,20.27
2018-03-27T13:03:00.960Z,21.33
2018-03-27T13:05:37.495Z,21.33
2018-03-27T13:10:48.245Z,20.37
2018-03-27T13:13:31.129Z,19.53
2018-03-27T13:18:46.284Z,19.57
2018-03-27T13:21:19.369Z,18.67
2018-03-27T13:23:49.017Z,18.70
2018-03-27T13:28:54.672Z,19.20
2018-03-27T13:31:22.791Z,19.30
2018-03-27T13:33:54.901Z,19.43
2018-03-27T13:36:29.273Z,18.60
2018-03-27T13:41:40.432Z,18.47
2018-03-27T13:44:15.011Z,18.90
2018-03-27T13:46:49.250Z,17.60
2018-03-27T13:49:23.134Z,18.33
2018-03-27T13:51:51.609Z,20.63
2018-03-27T13:54:29.083Z,18.30
2018-03-27T13:59:38.281Z,18.93
2018-03-27T14:02:08.604Z,19.70
2018-03-27T14:04:39.290Z,19.87
2018-03-27T14:07:10.576Z,21.07
2018-03-27T14:09:44.064Z,21.70
2018-03-27T14:12:13.888Z,22.00
2018-03-27T14:14:43.047Z,20.53
2018-03-27T14:17:10.880Z,20.43
2018-03-27T14:19:40.022Z,21.70
2018-03-27T14:22:07.823Z,19.57
2018-03-27T14:27:12.875Z,19.83
2018-03-27T14:29:40.938Z,20.67
2018-03-27T14:32:10.959Z,21.63
2018-03-27T14:34:49.158Z,21.60
2018-03-27T14:39:55.842Z,22.43
2018-03-27T14:42:33.416Z,21.83
2018-03-27T14:45:03.804Z,21.60
2018-03-27T14:47:36.629Z,21.57
2018-03-27T14:50:08.586Z,21.77
2018-03-27T14:52:38.968Z,21.40
2018-03-27T14:55:07.898Z,22.33
2018-03-27T14:57:43.700Z,22.40
2018-03-27T15:00:13.012Z,23.40
2018-03-27T15:02:44.464Z,23.77
2018-03-27T15:05:14.992Z,22.17
2018-03-27T15:07:46.231Z,23.10
2018-03-27T15:10:20.556Z,23.23
2018-03-27T15:12:55.287Z,22.40
2018-03-27T15:15:23.763Z,23.13
2018-03-27T15:17:51.763Z,22.80
2018-03-27T15:20:20.988Z,24.13
2018-03-27T15:22:59.596Z,23.30
2018-03-27T15:25:27.808Z,23.53
2018-03-27T15:27:58.603Z,23.07
2018-03-27T15:30:32.180Z,22.97
2018-03-27T15:33:07.638Z,21.80
2018-03-27T15:35:37.404Z,23.87
2018-03-27T15:38:09.774Z,23.37
2018-03-27T15:40:50.677Z,21.30
2018-03-27T15:43:22.448Z,23.50
2018-03-27T15:48:30.478Z,22.27
2018-03-27T15:53:34.973Z,23.53
2018-03-27T15:56:04.510Z,22.80
2018-03-27T15:58:34.526Z,27.90
2018-03-27T16:03:41.023Z,24.97
2018-03-27T16:06:12.947Z,25.67
2018-03-27T16:08:44.531Z,25.77
2018-03-27T16:11:18.170Z,26.47
2018-03-27T16:13:50.781Z,27.27
2018-03-27T16:16:23.408Z,26.60
2018-03-27T16:18:52.699Z,27.23
2018-03-27T16:21:23.824Z,24.83
2018-03-27T16:23:57.748Z,26.47
2018-03-27T16:26:29.472Z,23.80
2018-03-27T16:29:03.952Z,30.80
2018-03-27T16:31:38.913Z,26.77
2018-03-27T16:39:39.805Z,28.23
2018-03-27T16:44:41.366Z,29.27
2018-03-27T16:47:15.312Z,28.20
2018-03-27T16:49:44.869Z,28.13
2018-03-27T16:52:15.710Z,27.80
2018-03-27T16:54:46.747Z,31.43
2018-03-27T16:57:19.840Z,29.63
2018-03-27T16:59:51.531Z,29.03
2018-03-27T17:02:25.418Z,28.77
2018-03-27T17:04:57.409Z,26.13
2018-03-27T17:07:25.360Z,29.70
2018-03-27T17:09:54.277Z,29.13
2018-03-27T17:12:25.486Z,28.83
2018-03-27T17:17:39.313Z,28.93
2018-03-27T17:20:10.603Z,27.57
2018-03-27T17:22:41.283Z,27.97
2018-03-27T17:25:18.125Z,28.07
2018-03-27T17:27:48.200Z,29.40
2018-03-27T17:30:18.166Z,27.07
2018-03-27T17:32:46.885Z,27.00
2018-03-27T17:35:15.732Z,25.23
2018-03-27T17:37:57.004Z,26.63
2018-03-27T17:40:28.072Z,25.60
2018-03-27T17:42:57.697Z,26.00
2018-03-27T17:45:26.640Z,26.30
2018-03-27T17:47:59.073Z,25.43
2018-03-27T17:50:36.403Z,26.23
2018-03-27T17:55:49.182Z,25.10
2018-03-27T17:58:20.466Z,26.90
2018-03-27T18:00:50.192Z,26.60
2018-03-27T18:03:22.130Z,26.47
2018-03-27T18:08:25.344Z,25.43
2018-03-27T18:10:57.746Z,27.10
2018-03-27T18:13:26.514Z,29.73
2018-03-27T18:15:58.171Z,27.43
2018-03-27T18:18:29.425Z,26.27
2018-03-27T18:21:00.154Z,25.00
2018-03-27T18:23:35.180Z,27.60
2018-03-27T18:26:08.806Z,30.47
2018-03-27T18:28:54.334Z,34.67
2018-03-27T18:31:29.044Z,29.10
2018-03-27T18:33:58.634Z,27.40
2018-03-27T18:36:32.491Z,28.00
2018-03-27T18:39:00.977Z,29.40
2018-03-27T18:41:29.714Z,29.13
2018-03-27T18:43:58.129Z,26.50
2018-03-27T18:46:32.635Z,29.83
2018-03-27T18:49:03.841Z,29.50
2018-03-27T18:51:38.441Z,30.40
2018-03-27T18:54:10.072Z,30.87
2018-03-27T18:56:42.467Z,30.00
2018-03-27T18:59:10.046Z,28.83
2018-03-27T19:01:43.169Z,28.17
2018-03-27T19:04:22.260Z,28.60
2018-03-27T19:06:50.191Z,29.57
2018-03-27T19:09:19.762Z,31.97
2018-03-27T19:12:03.743Z,29.63
2018-03-27T19:14:37.368Z,29.77
2018-03-27T19:17:07.402Z,30.40
2018-03-27T19:19:35.674Z,29.70
2018-03-27T19:24:42.569Z,29.90
2018-03-27T19:27:13.016Z,29.70
2018-03-27T19:29:47.894Z,30.77
2018-03-27T19:32:21.384Z,31.13
2018-03-27T19:34:56.405Z,30.67
2018-03-27T19:37:29.166Z,32.10
2018-03-27T19:42:44.560Z,31.40
2018-03-27T19:45:20.578Z,32.57
2018-03-27T19:47:51.801Z,32.30
2018-03-27T19:50:20.236Z,34.00
2018-03-27T19:52:51.509Z,35.70
2018-03-27T19:55:20.659Z,35.20
2018-03-27T19:57:51.566Z,36.40
2018-03-27T20:00:22.255Z,35.20
2018-03-27T20:02:58.236Z,36.50
2018-03-27T20:05:30.123Z,34.40
2018-03-27T20:07:58.740Z,33.37
2018-03-27T20:10:36.446Z,33.07
2018-03-27T20:13:16.725Z,29.90
2018-03-27T20:18:25.508Z,31.30
2018-03-27T20:20:54.417Z,31.10
2018-03-27T20:23:25.393Z,30.40
2018-03-27T20:25:54.333Z,29.53
2018-03-27T20:28:24.412Z,31.53
2018-03-27T20:30:55.390Z,29.63
2018-03-27T20:33:37.636Z,28.47
2018-03-27T20:36:05.621Z,32.13
2018-03-27T20:41:11.083Z,29.97
2018-03-27T20:43:43.470Z,33.07
2018-03-27T20:46:13.482Z,30.90
2018-03-27T20:48:45.902Z,31.87
2018-03-27T20:51:17.089Z,32.40
2018-03-27T20:56:26.642Z,31.20
2018-03-27T21:01:34.881Z,28.97
2018-03-27T21:04:17.135Z,31.17
2018-03-27T21:07:04.589Z,31.53
2018-03-27T21:09:32.630Z,34.20
2018-03-27T21:12:08.620Z,30.80
2018-03-27T21:14:50.346Z,32.07
2018-03-27T21:20:22.266Z,30.60
2018-03-27T21:22:51.854Z,29.20
2018-03-27T21:25:23.338Z,30.60
2018-03-27T21:30:32.558Z,29.30
2018-03-27T21:33:06.063Z,31.90
2018-03-27T21:35:34.654Z,29.63
2018-03-27T21:38:08.824Z,30.50
2018-03-27T21:40:38.022Z,31.23
2018-03-27T21:43:10.076Z,31.03
2018-03-27T21:45:40.168Z,32.30
2018-03-27T21:48:10.625Z,28.90
2018-03-27T21:50:41.824Z,30.70
2018-03-27T21:53:21.814Z,29.60
2018-03-27T21:55:51.295Z,27.90
2018-03-27T21:58:19.887Z,29.10
2018-03-27T22:00:48.507Z,28.20
2018-03-27T22:03:20.148Z,28.60
2018-03-27T22:05:48.539Z,27.00
2018-03-27T22:08:18.295Z,26.30
2018-03-27T22:10:54.255Z,30.13
2018-03-27T22:13:26.987Z,29.30
2018-03-27T22:16:03.649Z,29.37
2018-03-27T22:18:32.148Z,29.43
2018-03-27T22:21:05.408Z,27.00
2018-03-27T22:23:35.856Z,28.47
2018-03-27T22:28:46.766Z,29.10
2018-03-27T22:31:20.808Z,29.00
2018-03-27T22:33:49.006Z,28.27
2018-03-27T22:36:22.681Z,28.30
2018-03-27T22:38:50.784Z,29.87
2018-03-27T22:41:21.511Z,28.37
2018-03-27T22:43:54.286Z,29.10
2018-03-27T22:46:25.656Z,27.60
2018-03-27T22:49:08.670Z,28.90
2018-03-27T22:51:46.290Z,28.20
2018-03-27T22:54:21.545Z,28.10
2018-03-27T22:56:51.657Z,27.27
2018-03-27T22:59:22.036Z,28.03
2018-03-27T23:02:11.202Z,28.60
2018-03-27T23:04:39.298Z,29.90
2018-03-27T23:07:07.258Z,28.87
2018-03-27T23:09:37.470Z,31.10
2018-03-27T23:12:08.720Z,30.07
2018-03-27T23:17:17.867Z,30.23
2018-03-27T23:20:00.981Z,29.53
2018-03-27T23:25:39.617Z,30.60
2018-03-27T23:28:11.377Z,31.27
2018-03-27T23:30:39.938Z,31.27
2018-03-27T23:33:07.518Z,31.23
2018-03-27T23:35:36.923Z,32.40
2018-03-27T23:40:48.280Z,31.50
2018-03-27T23:43:20.936Z,32.93
2018-03-27T23:45:52.427Z,33.07
2018-03-27T23:48:34.745Z,32.60
2018-03-27T23:51:04.984Z,29.27
2018-03-27T23:53:39.476Z,31.00
2018-03-27T23:58:44.138Z,31.00
